sensor_id;sensor_type;location;lat;lon;timestamp;temperature;humidity
352;DHT22;164;50.784;6.496;2022-08-25T00:01:32;22.60;1.00
352;DHT22;164;50.784;6.496;2022-08-25T00:04:02;22.50;1.00
352;DHT22;164;50.784;6.496;2022-08-25T00:06:29;22.50;1.00
352;DHT22;164;50.784;6.496;2022-08-25T00:08:58;22.40;1.00
352;DHT22;164;50.784;6.496;2022-08-25T00:11:28;22.30;1.00
352;DHT22;164;50.784;6.496;2022-08-25T00:13:58;22.30;1.00
352;DHT22;164;50.784;6.496;2022-08-25T00:16:27;22.30;1.00
352;DHT22;164;50.784;6.496;2022-08-25T00:18:56;22.30;1.00
352;DHT22;164;50.784;6.496;2022-08-25T00:21:25;22.20;1.00
352;DHT22;164;50.784;6.496;2022-08-25T00:23:53;22.20;1.00
352;DHT22;164;50.784;6.496;2022-08-25T00:26:21;22.20;1.00
352;DHT22;164;50.784;6.496;2022-08-25T00:28:48;22.20;1.00
352;DHT22;164;50.784;6.496;2022-08-25T00:31:18;22.20;1.00
352;DHT22;164;50.784;6.496;2022-08-25T00:33:46;22.10;1.00
352;DHT22;164;50.784;6.496;2022-08-25T00:36:14;22.10;1.00
352;DHT22;164;50.784;6.496;2022-08-25T00:38:43;22.10;1.00
352;DHT22;164;50.784;6.496;2022-08-25T00:41:13;22.10;1.00
352;DHT22;164;50.784;6.496;2022-08-25T00:43:47;22.10;1.00
352;DHT22;164;50.784;6.496;2022-08-25T00:46:18;22.10;1.00
352;DHT22;164;50.784;6.496;2022-08-25T00:48:48;22.20;1.00
352;DHT22;164;50.784;6.496;2022-08-25T00:51:20;22.20;1.00
352;DHT22;164;50.784;6.496;2022-08-25T00:53:49;22.20;1.00
352;DHT22;164;50.784;6.496;2022-08-25T00:56:16;22.20;1.00
352;DHT22;164;50.784;6.496;2022-08-25T00:58:45;22.20;1.00
352;DHT22;164;50.784;6.496;2022-08-25T01:01:12;22.20;1.00
352;DHT22;164;50.784;6.496;2022-08-25T01:03:39;22.20;1.00
352;DHT22;164;50.784;6.496;2022-08-25T01:06:06;22.20;1.00
352;DHT22;164;50.784;6.496;2022-08-25T01:08:35;22.10;1.00
352;DHT22;164;50.784;6.496;2022-08-25T01:11:06;22.10;1.00
352;DHT22;164;50.784;6.496;2022-08-25T01:13:36;22.10;1.00
352;DHT22;164;50.784;6.496;2022-08-25T01:16:06;22.10;1.00
352;DHT22;164;50.784;6.496;2022-08-25T01:18:45;22.10;1.00
352;DHT22;164;50.784;6.496;2022-08-25T01:21:15;22.00;1.00
352;DHT22;164;50.784;6.496;2022-08-25T01:23:43;22.00;1.00
352;DHT22;164;50.784;6.496;2022-08-25T01:26:12;22.00;1.00
352;DHT22;164;50.784;6.496;2022-08-25T01:28:41;22.00;1.00
352;DHT22;164;50.784;6.496;2022-08-25T01:31:29;22.00;1.00
352;DHT22;164;50.784;6.496;2022-08-25T01:33:57;21.90;1.00
352;DHT22;164;50.784;6.496;2022-08-25T01:36:27;21.90;1.00
352;DHT22;164;50.784;6.496;2022-08-25T01:44:05;21.90;1.00
352;DHT22;164;50.784;6.496;2022-08-25T01:46:33;21.90;1.00
352;DHT22;164;50.784;6.496;2022-08-25T01:49:00;21.90;1.00
352;DHT22;164;50.784;6.496;2022-08-25T01:51:34;21.90;1.00
352;DHT22;164;50.784;6.496;2022-08-25T01:54:03;21.90;1.00
352;DHT22;164;50.784;6.496;2022-08-25T01:56:30;21.90;1.00
352;DHT22;164;50.784;6.496;2022-08-25T01:58:57;21.90;1.00
352;DHT22;164;50.784;6.496;2022-08-25T02:01:24;21.90;1.00
352;DHT22;164;50.784;6.496;2022-08-25T02:03:53;21.80;1.00
352;DHT22;164;50.784;6.496;2022-08-25T02:06:22;21.80;1.00
352;DHT22;164;50.784;6.496;2022-08-25T02:08:54;21.80;1.00
352;DHT22;164;50.784;6.496;2022-08-25T02:11:22;21.80;1.00
352;DHT22;164;50.784;6.496;2022-08-25T02:13:50;21.70;1.00
352;DHT22;164;50.784;6.496;2022-08-25T02:16:19;21.70;1.00
352;DHT22;164;50.784;6.496;2022-08-25T02:18:48;21.60;1.00
352;DHT22;164;50.784;6.496;2022-08-25T02:21:15;21.60;1.00
352;DHT22;164;50.784;6.496;2022-08-25T02:23:42;21.50;1.00
352;DHT22;164;50.784;6.496;2022-08-25T02:26:11;21.40;1.00
352;DHT22;164;50.784;6.496;2022-08-25T02:28:41;21.40;1.00
352;DHT22;164;50.784;6.496;2022-08-25T02:31:08;21.30;1.00
352;DHT22;164;50.784;6.496;2022-08-25T02:33:35;21.30;1.00
352;DHT22;164;50.784;6.496;2022-08-25T02:36:03;21.20;1.00
352;DHT22;164;50.784;6.496;2022-08-25T02:38:31;21.20;1.00
352;DHT22;164;50.784;6.496;2022-08-25T02:40:59;21.10;1.00
352;DHT22;164;50.784;6.496;2022-08-25T02:43:27;21.10;1.00
352;DHT22;164;50.784;6.496;2022-08-25T02:45:54;21.00;1.00
352;DHT22;164;50.784;6.496;2022-08-25T02:48:22;21.00;1.00
352;DHT22;164;50.784;6.496;2022-08-25T02:50:50;21.00;1.00
352;DHT22;164;50.784;6.496;2022-08-25T02:53:17;20.90;1.00
352;DHT22;164;50.784;6.496;2022-08-25T02:55:44;20.80;1.00
352;DHT22;164;50.784;6.496;2022-08-25T02:58:12;20.70;1.00
352;DHT22;164;50.784;6.496;2022-08-25T03:00:40;20.60;1.00
352;DHT22;164;50.784;6.496;2022-08-25T03:03:07;20.50;1.00
352;DHT22;164;50.784;6.496;2022-08-25T03:05:34;20.40;1.00
352;DHT22;164;50.784;6.496;2022-08-25T03:08:02;20.30;1.00
352;DHT22;164;50.784;6.496;2022-08-25T03:10:29;20.30;1.00
352;DHT22;164;50.784;6.496;2022-08-25T03:18:56;20.10;1.00
352;DHT22;164;50.784;6.496;2022-08-25T03:21:24;20.00;1.00
352;DHT22;164;50.784;6.496;2022-08-25T03:23:51;19.90;1.00
352;DHT22;164;50.784;6.496;2022-08-25T03:26:18;19.90;1.00
352;DHT22;164;50.784;6.496;2022-08-25T03:29:02;19.90;1.00
352;DHT22;164;50.784;6.496;2022-08-25T03:31:30;19.90;1.00
352;DHT22;164;50.784;6.496;2022-08-25T03:33:59;19.80;1.00
352;DHT22;164;50.784;6.496;2022-08-25T03:36:27;19.90;1.00
352;DHT22;164;50.784;6.496;2022-08-25T03:38:54;19.90;1.00
352;DHT22;164;50.784;6.496;2022-08-25T03:41:24;19.90;1.00
352;DHT22;164;50.784;6.496;2022-08-25T03:43:53;19.90;1.00
352;DHT22;164;50.784;6.496;2022-08-25T03:46:23;19.90;1.00
352;DHT22;164;50.784;6.496;2022-08-25T03:48:51;19.90;1.00
352;DHT22;164;50.784;6.496;2022-08-25T03:51:21;20.00;1.00
352;DHT22;164;50.784;6.496;2022-08-25T03:53:48;19.90;1.00
352;DHT22;164;50.784;6.496;2022-08-25T03:56:15;20.00;1.00
352;DHT22;164;50.784;6.496;2022-08-25T03:58:42;20.00;1.00
352;DHT22;164;50.784;6.496;2022-08-25T04:01:10;19.90;1.00
352;DHT22;164;50.784;6.496;2022-08-25T04:03:37;19.90;1.00
352;DHT22;164;50.784;6.496;2022-08-25T04:06:05;19.90;1.00
352;DHT22;164;50.784;6.496;2022-08-25T04:08:35;19.90;1.00
352;DHT22;164;50.784;6.496;2022-08-25T04:11:05;19.90;1.00
352;DHT22;164;50.784;6.496;2022-08-25T04:13:32;19.90;1.00
352;DHT22;164;50.784;6.496;2022-08-25T04:15:59;19.90;1.00
352;DHT22;164;50.784;6.496;2022-08-25T04:18:26;19.80;1.00
352;DHT22;164;50.784;6.496;2022-08-25T04:21:02;19.80;1.00
352;DHT22;164;50.784;6.496;2022-08-25T04:23:29;19.70;1.00
352;DHT22;164;50.784;6.496;2022-08-25T04:25:58;19.70;1.00
352;DHT22;164;50.784;6.496;2022-08-25T04:28:25;19.60;1.00
352;DHT22;164;50.784;6.496;2022-08-25T04:30:52;19.60;1.00
352;DHT22;164;50.784;6.496;2022-08-25T04:33:19;19.50;1.00
352;DHT22;164;50.784;6.496;2022-08-25T04:35:47;19.50;1.00
352;DHT22;164;50.784;6.496;2022-08-25T04:38:14;19.50;1.00
352;DHT22;164;50.784;6.496;2022-08-25T04:40:41;19.40;1.00
352;DHT22;164;50.784;6.496;2022-08-25T04:43:09;19.40;1.00
352;DHT22;164;50.784;6.496;2022-08-25T04:45:37;19.30;1.00
352;DHT22;164;50.784;6.496;2022-08-25T04:48:04;19.30;1.00
352;DHT22;164;50.784;6.496;2022-08-25T04:50:32;19.30;1.00
352;DHT22;164;50.784;6.496;2022-08-25T04:52:59;19.30;1.00
352;DHT22;164;50.784;6.496;2022-08-25T04:55:26;19.30;1.00
352;DHT22;164;50.784;6.496;2022-08-25T04:57:53;19.30;1.00
352;DHT22;164;50.784;6.496;2022-08-25T05:00:22;19.40;1.00
352;DHT22;164;50.784;6.496;2022-08-25T05:02:49;19.40;1.00
352;DHT22;164;50.784;6.496;2022-08-25T05:05:16;19.40;1.00
352;DHT22;164;50.784;6.496;2022-08-25T05:07:43;19.40;1.00
352;DHT22;164;50.784;6.496;2022-08-25T05:10:10;19.50;1.00
352;DHT22;164;50.784;6.496;2022-08-25T05:12:37;19.50;1.00
352;DHT22;164;50.784;6.496;2022-08-25T05:15:04;19.60;1.00
352;DHT22;164;50.784;6.496;2022-08-25T05:17:46;19.60;1.00
352;DHT22;164;50.784;6.496;2022-08-25T05:20:14;19.70;1.00
352;DHT22;164;50.784;6.496;2022-08-25T05:22:43;19.70;1.00
352;DHT22;164;50.784;6.496;2022-08-25T05:25:11;19.80;1.00
352;DHT22;164;50.784;6.496;2022-08-25T05:27:39;19.80;1.00
352;DHT22;164;50.784;6.496;2022-08-25T05:30:09;19.80;1.00
352;DHT22;164;50.784;6.496;2022-08-25T05:32:36;19.80;1.00
352;DHT22;164;50.784;6.496;2022-08-25T05:35:06;19.80;1.00
352;DHT22;164;50.784;6.496;2022-08-25T05:37:33;19.80;1.00
352;DHT22;164;50.784;6.496;2022-08-25T05:40:01;19.70;1.00
352;DHT22;164;50.784;6.496;2022-08-25T05:42:28;19.70;1.00
352;DHT22;164;50.784;6.496;2022-08-25T05:44:55;19.70;1.00
352;DHT22;164;50.784;6.496;2022-08-25T05:47:22;19.70;1.00
352;DHT22;164;50.784;6.496;2022-08-25T05:49:49;19.70;1.00
352;DHT22;164;50.784;6.496;2022-08-25T05:52:17;19.70;1.00
352;DHT22;164;50.784;6.496;2022-08-25T05:54:44;19.80;1.00
352;DHT22;164;50.784;6.496;2022-08-25T05:57:11;19.80;1.00
352;DHT22;164;50.784;6.496;2022-08-25T05:59:38;19.80;1.00
352;DHT22;164;50.784;6.496;2022-08-25T06:02:06;19.90;1.00
352;DHT22;164;50.784;6.496;2022-08-25T06:04:51;20.00;1.00
352;DHT22;164;50.784;6.496;2022-08-25T06:07:19;20.10;1.00
352;DHT22;164;50.784;6.496;2022-08-25T06:09:46;20.20;1.00
352;DHT22;164;50.784;6.496;2022-08-25T06:12:15;20.30;1.00
352;DHT22;164;50.784;6.496;2022-08-25T06:14:43;20.30;1.00
352;DHT22;164;50.784;6.496;2022-08-25T06:17:10;20.40;1.00
352;DHT22;164;50.784;6.496;2022-08-25T06:19:37;20.50;1.00
352;DHT22;164;50.784;6.496;2022-08-25T06:22:05;20.60;1.00
352;DHT22;164;50.784;6.496;2022-08-25T06:24:33;20.70;1.00
352;DHT22;164;50.784;6.496;2022-08-25T06:27:01;20.80;1.00
352;DHT22;164;50.784;6.496;2022-08-25T06:29:29;20.90;1.00
352;DHT22;164;50.784;6.496;2022-08-25T06:31:56;21.00;1.00
352;DHT22;164;50.784;6.496;2022-08-25T06:34:23;21.10;1.00
352;DHT22;164;50.784;6.496;2022-08-25T06:36:50;21.20;1.00
352;DHT22;164;50.784;6.496;2022-08-25T06:39:17;21.40;1.00
352;DHT22;164;50.784;6.496;2022-08-25T06:41:50;21.40;1.00
352;DHT22;164;50.784;6.496;2022-08-25T06:44:17;21.60;1.00
352;DHT22;164;50.784;6.496;2022-08-25T06:46:44;21.70;1.00
352;DHT22;164;50.784;6.496;2022-08-25T06:49:12;21.80;1.00
352;DHT22;164;50.784;6.496;2022-08-25T06:51:39;21.90;1.00
352;DHT22;164;50.784;6.496;2022-08-25T06:54:08;22.10;1.00
352;DHT22;164;50.784;6.496;2022-08-25T06:56:36;22.20;1.00
352;DHT22;164;50.784;6.496;2022-08-25T06:59:06;22.30;1.00
352;DHT22;164;50.784;6.496;2022-08-25T07:01:33;22.50;1.00
352;DHT22;164;50.784;6.496;2022-08-25T07:04:02;22.60;1.00
352;DHT22;164;50.784;6.496;2022-08-25T07:06:32;22.70;1.00
352;DHT22;164;50.784;6.496;2022-08-25T07:09:00;22.80;1.00
352;DHT22;164;50.784;6.496;2022-08-25T07:11:27;22.90;1.00
352;DHT22;164;50.784;6.496;2022-08-25T07:13:59;23.00;1.00
352;DHT22;164;50.784;6.496;2022-08-25T07:16:29;23.10;1.00
352;DHT22;164;50.784;6.496;2022-08-25T07:18:57;23.30;1.00
352;DHT22;164;50.784;6.496;2022-08-25T07:21:26;23.40;1.00
352;DHT22;164;50.784;6.496;2022-08-25T07:23:53;23.50;1.00
352;DHT22;164;50.784;6.496;2022-08-25T07:26:24;23.60;1.00
352;DHT22;164;50.784;6.496;2022-08-25T07:28:52;23.80;1.00
352;DHT22;164;50.784;6.496;2022-08-25T07:31:32;23.90;1.00
352;DHT22;164;50.784;6.496;2022-08-25T07:33:59;24.00;1.00
352;DHT22;164;50.784;6.496;2022-08-25T07:36:44;24.10;1.00
352;DHT22;164;50.784;6.496;2022-08-25T07:39:11;24.20;1.00
352;DHT22;164;50.784;6.496;2022-08-25T07:41:40;24.30;1.00
352;DHT22;164;50.784;6.496;2022-08-25T07:44:08;24.40;1.00
352;DHT22;164;50.784;6.496;2022-08-25T07:46:38;24.50;1.00
352;DHT22;164;50.784;6.496;2022-08-25T07:49:05;24.60;1.00
352;DHT22;164;50.784;6.496;2022-08-25T07:51:33;24.70;1.00
352;DHT22;164;50.784;6.496;2022-08-25T07:54:00;24.90;1.00
352;DHT22;164;50.784;6.496;2022-08-25T07:56:27;25.00;1.00
352;DHT22;164;50.784;6.496;2022-08-25T07:58:55;25.10;1.00
352;DHT22;164;50.784;6.496;2022-08-25T08:01:23;25.20;1.00
352;DHT22;164;50.784;6.496;2022-08-25T08:03:52;25.20;1.00
352;DHT22;164;50.784;6.496;2022-08-25T08:06:20;25.30;1.00
352;DHT22;164;50.784;6.496;2022-08-25T08:08:50;25.40;1.00
352;DHT22;164;50.784;6.496;2022-08-25T08:11:19;25.50;1.00
352;DHT22;164;50.784;6.496;2022-08-25T08:13:48;25.60;1.00
352;DHT22;164;50.784;6.496;2022-08-25T08:16:16;25.60;1.00
352;DHT22;164;50.784;6.496;2022-08-25T08:18:44;25.70;1.00
352;DHT22;164;50.784;6.496;2022-08-25T08:21:15;25.80;1.00
352;DHT22;164;50.784;6.496;2022-08-25T08:23:43;26.00;1.00
352;DHT22;164;50.784;6.496;2022-08-25T08:26:10;26.00;1.00
352;DHT22;164;50.784;6.496;2022-08-25T08:28:38;26.20;1.00
352;DHT22;164;50.784;6.496;2022-08-25T08:31:05;26.20;1.00
352;DHT22;164;50.784;6.496;2022-08-25T08:33:33;26.30;1.00
352;DHT22;164;50.784;6.496;2022-08-25T08:36:03;26.40;1.00
352;DHT22;164;50.784;6.496;2022-08-25T08:38:32;26.60;1.00
352;DHT22;164;50.784;6.496;2022-08-25T08:41:06;26.70;1.00
352;DHT22;164;50.784;6.496;2022-08-25T08:44:02;26.90;1.00
352;DHT22;164;50.784;6.496;2022-08-25T08:46:39;27.00;1.00
352;DHT22;164;50.784;6.496;2022-08-25T08:49:16;27.10;1.00
352;DHT22;164;50.784;6.496;2022-08-25T08:51:54;27.20;1.00
352;DHT22;164;50.784;6.496;2022-08-25T08:54:24;27.40;1.00
352;DHT22;164;50.784;6.496;2022-08-25T08:56:57;27.50;1.00
352;DHT22;164;50.784;6.496;2022-08-25T08:59:37;27.70;1.00
352;DHT22;164;50.784;6.496;2022-08-25T09:02:15;27.80;1.00
352;DHT22;164;50.784;6.496;2022-08-25T09:04:47;27.90;1.00
352;DHT22;164;50.784;6.496;2022-08-25T09:07:18;28.00;1.00
352;DHT22;164;50.784;6.496;2022-08-25T09:09:48;28.20;1.00
352;DHT22;164;50.784;6.496;2022-08-25T09:12:24;28.30;1.00
352;DHT22;164;50.784;6.496;2022-08-25T09:15:01;28.40;1.00
352;DHT22;164;50.784;6.496;2022-08-25T09:17:51;28.50;1.00
352;DHT22;164;50.784;6.496;2022-08-25T09:20:39;28.60;1.00
352;DHT22;164;50.784;6.496;2022-08-25T09:23:19;28.70;1.00
352;DHT22;164;50.784;6.496;2022-08-25T09:25:55;28.80;1.00
352;DHT22;164;50.784;6.496;2022-08-25T09:28:29;28.90;1.00
352;DHT22;164;50.784;6.496;2022-08-25T09:30:58;29.00;1.00
352;DHT22;164;50.784;6.496;2022-08-25T09:33:27;29.10;1.00
352;DHT22;164;50.784;6.496;2022-08-25T09:35:55;29.10;1.00
352;DHT22;164;50.784;6.496;2022-08-25T09:38:23;29.20;1.00
352;DHT22;164;50.784;6.496;2022-08-25T09:40:54;29.30;1.00
352;DHT22;164;50.784;6.496;2022-08-25T09:43:28;29.50;1.00
352;DHT22;164;50.784;6.496;2022-08-25T09:45:59;29.60;1.00
352;DHT22;164;50.784;6.496;2022-08-25T09:48:29;29.70;1.00
352;DHT22;164;50.784;6.496;2022-08-25T09:51:11;29.80;1.00
352;DHT22;164;50.784;6.496;2022-08-25T09:53:47;29.90;1.00
352;DHT22;164;50.784;6.496;2022-08-25T09:56:19;30.00;1.00
352;DHT22;164;50.784;6.496;2022-08-25T09:58:47;30.00;1.00
352;DHT22;164;50.784;6.496;2022-08-25T10:01:16;30.10;1.00
352;DHT22;164;50.784;6.496;2022-08-25T10:04:02;30.20;1.00
352;DHT22;164;50.784;6.496;2022-08-25T10:06:34;30.40;1.00
352;DHT22;164;50.784;6.496;2022-08-25T10:09:05;30.40;1.00
352;DHT22;164;50.784;6.496;2022-08-25T10:11:40;30.50;1.00
352;DHT22;164;50.784;6.496;2022-08-25T10:14:25;30.60;1.00
352;DHT22;164;50.784;6.496;2022-08-25T10:17:11;30.70;1.00
352;DHT22;164;50.784;6.496;2022-08-25T10:19:39;30.80;1.00
352;DHT22;164;50.784;6.496;2022-08-25T10:22:08;30.90;1.00
352;DHT22;164;50.784;6.496;2022-08-25T10:24:37;30.90;1.00
352;DHT22;164;50.784;6.496;2022-08-25T10:27:13;31.00;1.00
352;DHT22;164;50.784;6.496;2022-08-25T10:30:04;31.10;1.00
352;DHT22;164;50.784;6.496;2022-08-25T10:32:43;31.30;1.00
352;DHT22;164;50.784;6.496;2022-08-25T10:35:13;31.50;1.00
352;DHT22;164;50.784;6.496;2022-08-25T10:37:52;31.70;1.00
352;DHT22;164;50.784;6.496;2022-08-25T10:40:27;31.90;1.00
352;DHT22;164;50.784;6.496;2022-08-25T10:43:05;32.00;1.00
352;DHT22;164;50.784;6.496;2022-08-25T10:45:37;32.10;1.00
352;DHT22;164;50.784;6.496;2022-08-25T10:48:29;32.30;1.00
352;DHT22;164;50.784;6.496;2022-08-25T10:51:02;32.30;1.00
352;DHT22;164;50.784;6.496;2022-08-25T10:53:39;32.30;1.00
352;DHT22;164;50.784;6.496;2022-08-25T10:56:15;32.30;1.00
352;DHT22;164;50.784;6.496;2022-08-25T10:59:08;32.20;1.00
352;DHT22;164;50.784;6.496;2022-08-25T11:01:53;32.30;1.00
352;DHT22;164;50.784;6.496;2022-08-25T11:04:26;32.50;1.00
352;DHT22;164;50.784;6.496;2022-08-25T11:06:59;32.60;1.00
352;DHT22;164;50.784;6.496;2022-08-25T11:09:29;32.80;1.00
352;DHT22;164;50.784;6.496;2022-08-25T11:12:03;33.00;1.00
352;DHT22;164;50.784;6.496;2022-08-25T11:14:37;33.10;1.00
352;DHT22;164;50.784;6.496;2022-08-25T11:17:10;33.20;1.00
352;DHT22;164;50.784;6.496;2022-08-25T11:19:42;33.40;1.00
352;DHT22;164;50.784;6.496;2022-08-25T11:22:13;33.40;1.00
352;DHT22;164;50.784;6.496;2022-08-25T11:24:53;33.60;1.00
352;DHT22;164;50.784;6.496;2022-08-25T11:27:36;33.60;1.00
352;DHT22;164;50.784;6.496;2022-08-25T11:30:08;33.80;1.00
352;DHT22;164;50.784;6.496;2022-08-25T11:32:37;33.90;1.00
352;DHT22;164;50.784;6.496;2022-08-25T11:35:07;33.90;1.00
352;DHT22;164;50.784;6.496;2022-08-25T11:37:39;34.00;1.00
352;DHT22;164;50.784;6.496;2022-08-25T11:40:34;33.80;1.00
352;DHT22;164;50.784;6.496;2022-08-25T11:43:13;33.80;1.00
352;DHT22;164;50.784;6.496;2022-08-25T11:45:56;33.90;1.00
352;DHT22;164;50.784;6.496;2022-08-25T11:48:34;34.00;1.00
352;DHT22;164;50.784;6.496;2022-08-25T11:51:05;33.80;1.00
352;DHT22;164;50.784;6.496;2022-08-25T11:53:34;33.80;1.00
352;DHT22;164;50.784;6.496;2022-08-25T11:56:04;33.90;1.00
352;DHT22;164;50.784;6.496;2022-08-25T11:58:38;34.00;1.00
352;DHT22;164;50.784;6.496;2022-08-25T12:01:10;34.10;1.00
352;DHT22;164;50.784;6.496;2022-08-25T12:03:51;34.20;1.00
352;DHT22;164;50.784;6.496;2022-08-25T12:06:25;34.30;1.00
352;DHT22;164;50.784;6.496;2022-08-25T12:09:19;34.40;1.00
352;DHT22;164;50.784;6.496;2022-08-25T12:11:52;34.60;1.00
352;DHT22;164;50.784;6.496;2022-08-25T12:14:43;34.60;1.00
352;DHT22;164;50.784;6.496;2022-08-25T12:17:24;34.70;1.00
352;DHT22;164;50.784;6.496;2022-08-25T12:19:58;34.50;1.00
352;DHT22;164;50.784;6.496;2022-08-25T12:22:55;34.50;1.00
352;DHT22;164;50.784;6.496;2022-08-25T12:25:47;34.50;1.00
352;DHT22;164;50.784;6.496;2022-08-25T12:28:28;34.70;1.00
352;DHT22;164;50.784;6.496;2022-08-25T12:31:01;34.80;1.00
352;DHT22;164;50.784;6.496;2022-08-25T12:33:39;34.90;1.00
352;DHT22;164;50.784;6.496;2022-08-25T12:36:14;35.00;1.00
352;DHT22;164;50.784;6.496;2022-08-25T12:38:51;35.10;1.00
352;DHT22;164;50.784;6.496;2022-08-25T12:41:21;35.20;1.00
352;DHT22;164;50.784;6.496;2022-08-25T12:43:50;35.20;1.00
352;DHT22;164;50.784;6.496;2022-08-25T12:46:35;35.30;1.00
352;DHT22;164;50.784;6.496;2022-08-25T12:49:09;35.40;1.00
352;DHT22;164;50.784;6.496;2022-08-25T12:51:51;35.50;1.00
352;DHT22;164;50.784;6.496;2022-08-25T12:54:24;35.60;1.00
352;DHT22;164;50.784;6.496;2022-08-25T12:56:59;35.60;1.00
352;DHT22;164;50.784;6.496;2022-08-25T12:59:35;35.70;1.00
352;DHT22;164;50.784;6.496;2022-08-25T13:02:41;35.80;1.00
352;DHT22;164;50.784;6.496;2022-08-25T13:05:30;35.90;1.00
352;DHT22;164;50.784;6.496;2022-08-25T13:08:20;35.80;1.00
352;DHT22;164;50.784;6.496;2022-08-25T13:10:52;35.80;1.00
352;DHT22;164;50.784;6.496;2022-08-25T13:13:37;35.90;1.00
352;DHT22;164;50.784;6.496;2022-08-25T13:16:06;36.00;1.00
352;DHT22;164;50.784;6.496;2022-08-25T13:18:36;36.10;1.00
352;DHT22;164;50.784;6.496;2022-08-25T13:21:08;36.10;1.00
352;DHT22;164;50.784;6.496;2022-08-25T13:23:42;36.20;1.00
352;DHT22;164;50.784;6.496;2022-08-25T13:26:11;36.20;1.00
352;DHT22;164;50.784;6.496;2022-08-25T13:28:42;36.20;1.00
352;DHT22;164;50.784;6.496;2022-08-25T13:31:15;36.20;1.00
352;DHT22;164;50.784;6.496;2022-08-25T13:33:50;36.30;1.00
352;DHT22;164;50.784;6.496;2022-08-25T13:36:20;36.30;1.00
352;DHT22;164;50.784;6.496;2022-08-25T13:39:13;36.30;1.00
352;DHT22;164;50.784;6.496;2022-08-25T13:41:45;36.30;1.00
352;DHT22;164;50.784;6.496;2022-08-25T13:44:14;36.10;1.00
352;DHT22;164;50.784;6.496;2022-08-25T13:46:43;36.00;1.00
352;DHT22;164;50.784;6.496;2022-08-25T13:49:10;36.00;1.00
352;DHT22;164;50.784;6.496;2022-08-25T13:51:39;36.10;1.00
352;DHT22;164;50.784;6.496;2022-08-25T13:54:24;36.00;1.00
352;DHT22;164;50.784;6.496;2022-08-25T13:56:51;36.10;1.00
352;DHT22;164;50.784;6.496;2022-08-25T13:59:23;36.20;1.00
352;DHT22;164;50.784;6.496;2022-08-25T14:01:52;36.30;1.00
352;DHT22;164;50.784;6.496;2022-08-25T14:04:27;36.30;1.00
352;DHT22;164;50.784;6.496;2022-08-25T14:07:08;36.30;1.00
352;DHT22;164;50.784;6.496;2022-08-25T14:09:43;36.30;1.00
352;DHT22;164;50.784;6.496;2022-08-25T14:12:26;36.40;1.00
352;DHT22;164;50.784;6.496;2022-08-25T14:15:00;36.50;1.00
352;DHT22;164;50.784;6.496;2022-08-25T14:17:27;36.70;1.00
352;DHT22;164;50.784;6.496;2022-08-25T14:19:55;36.80;1.00
352;DHT22;164;50.784;6.496;2022-08-25T14:22:23;36.90;1.00
352;DHT22;164;50.784;6.496;2022-08-25T14:24:51;36.80;1.00
352;DHT22;164;50.784;6.496;2022-08-25T14:27:19;36.90;1.00
352;DHT22;164;50.784;6.496;2022-08-25T14:29:46;36.90;1.00
352;DHT22;164;50.784;6.496;2022-08-25T14:32:15;37.00;1.00
352;DHT22;164;50.784;6.496;2022-08-25T14:34:44;37.20;1.00
352;DHT22;164;50.784;6.496;2022-08-25T14:37:13;37.40;1.00
352;DHT22;164;50.784;6.496;2022-08-25T14:39:41;37.50;1.00
352;DHT22;164;50.784;6.496;2022-08-25T14:42:08;37.60;1.00
352;DHT22;164;50.784;6.496;2022-08-25T14:44:36;37.60;1.00
352;DHT22;164;50.784;6.496;2022-08-25T14:47:08;37.70;1.00
352;DHT22;164;50.784;6.496;2022-08-25T14:49:40;37.80;1.00
352;DHT22;164;50.784;6.496;2022-08-25T14:52:16;37.70;1.00
352;DHT22;164;50.784;6.496;2022-08-25T14:54:44;37.60;1.00
352;DHT22;164;50.784;6.496;2022-08-25T14:57:11;37.60;1.00
352;DHT22;164;50.784;6.496;2022-08-25T14:59:38;37.80;1.00
352;DHT22;164;50.784;6.496;2022-08-25T15:02:06;38.20;1.00
352;DHT22;164;50.784;6.496;2022-08-25T15:04:34;38.40;1.00
352;DHT22;164;50.784;6.496;2022-08-25T15:07:03;38.60;1.00
352;DHT22;164;50.784;6.496;2022-08-25T15:09:51;38.80;1.00
352;DHT22;164;50.784;6.496;2022-08-25T15:12:17;38.60;1.00
352;DHT22;164;50.784;6.496;2022-08-25T15:14:44;38.50;1.00
352;DHT22;164;50.784;6.496;2022-08-25T15:17:11;38.50;1.00
352;DHT22;164;50.784;6.496;2022-08-25T15:19:39;38.10;1.00
352;DHT22;164;50.784;6.496;2022-08-25T15:22:08;38.30;1.00
352;DHT22;164;50.784;6.496;2022-08-25T15:24:36;38.90;1.00
352;DHT22;164;50.784;6.496;2022-08-25T15:27:04;39.60;1.00
352;DHT22;164;50.784;6.496;2022-08-25T15:29:32;39.60;1.00
352;DHT22;164;50.784;6.496;2022-08-25T15:32:02;39.40;1.00
352;DHT22;164;50.784;6.496;2022-08-25T15:34:29;39.10;1.00
352;DHT22;164;50.784;6.496;2022-08-25T15:36:57;39.40;1.00
352;DHT22;164;50.784;6.496;2022-08-25T15:39:26;39.00;1.00
352;DHT22;164;50.784;6.496;2022-08-25T15:41:53;39.30;1.00
352;DHT22;164;50.784;6.496;2022-08-25T15:44:21;39.80;1.00
352;DHT22;164;50.784;6.496;2022-08-25T15:46:48;39.80;1.00
352;DHT22;164;50.784;6.496;2022-08-25T15:49:15;40.30;1.00
352;DHT22;164;50.784;6.496;2022-08-25T15:51:42;40.70;1.00
352;DHT22;164;50.784;6.496;2022-08-25T15:54:09;41.30;1.00
352;DHT22;164;50.784;6.496;2022-08-25T15:56:40;41.90;1.00
352;DHT22;164;50.784;6.496;2022-08-25T15:59:08;42.20;1.00
352;DHT22;164;50.784;6.496;2022-08-25T16:01:38;42.50;1.00
352;DHT22;164;50.784;6.496;2022-08-25T16:04:05;42.90;1.00
352;DHT22;164;50.784;6.496;2022-08-25T16:06:33;43.50;1.00
352;DHT22;164;50.784;6.496;2022-08-25T16:09:00;43.80;1.00
352;DHT22;164;50.784;6.496;2022-08-25T16:11:28;44.10;1.00
352;DHT22;164;50.784;6.496;2022-08-25T16:13:57;44.10;1.00
352;DHT22;164;50.784;6.496;2022-08-25T16:16:26;43.80;1.00
352;DHT22;164;50.784;6.496;2022-08-25T16:18:53;43.20;1.00
352;DHT22;164;50.784;6.496;2022-08-25T16:21:24;43.10;1.00
352;DHT22;164;50.784;6.496;2022-08-25T16:23:52;43.40;1.00
352;DHT22;164;50.784;6.496;2022-08-25T16:26:20;43.70;1.00
352;DHT22;164;50.784;6.496;2022-08-25T16:28:47;43.80;1.00
352;DHT22;164;50.784;6.496;2022-08-25T16:31:16;44.00;1.00
352;DHT22;164;50.784;6.496;2022-08-25T16:33:44;44.10;1.00
352;DHT22;164;50.784;6.496;2022-08-25T16:36:13;44.00;1.00
352;DHT22;164;50.784;6.496;2022-08-25T16:38:42;43.40;1.00
352;DHT22;164;50.784;6.496;2022-08-25T16:41:11;42.60;1.00
352;DHT22;164;50.784;6.496;2022-08-25T16:43:39;42.50;1.00
352;DHT22;164;50.784;6.496;2022-08-25T16:46:07;42.30;1.00
352;DHT22;164;50.784;6.496;2022-08-25T16:48:37;42.40;1.00
352;DHT22;164;50.784;6.496;2022-08-25T16:51:06;42.60;1.00
352;DHT22;164;50.784;6.496;2022-08-25T16:53:33;42.60;1.00
352;DHT22;164;50.784;6.496;2022-08-25T16:56:26;42.70;1.00
352;DHT22;164;50.784;6.496;2022-08-25T16:58:54;42.50;1.00
352;DHT22;164;50.784;6.496;2022-08-25T17:01:22;42.10;1.00
352;DHT22;164;50.784;6.496;2022-08-25T17:03:51;41.70;1.00
352;DHT22;164;50.784;6.496;2022-08-25T17:06:20;41.10;1.00
352;DHT22;164;50.784;6.496;2022-08-25T17:08:47;40.30;1.00
352;DHT22;164;50.784;6.496;2022-08-25T17:11:18;39.60;1.00
352;DHT22;164;50.784;6.496;2022-08-25T17:13:47;39.00;1.00
352;DHT22;164;50.784;6.496;2022-08-25T17:16:15;38.80;1.00
352;DHT22;164;50.784;6.496;2022-08-25T17:18:42;38.60;1.00
352;DHT22;164;50.784;6.496;2022-08-25T17:21:12;38.20;1.00
352;DHT22;164;50.784;6.496;2022-08-25T17:23:41;37.60;1.00
352;DHT22;164;50.784;6.496;2022-08-25T17:26:10;37.20;1.00
352;DHT22;164;50.784;6.496;2022-08-25T17:28:39;36.60;1.00